sensor_id;sensor_type;location;lat;lon;timestamp;pressure;altitude;pressure_sealevel;temperature
76476;BMP280;65308;50.078;14.854;2023-06-22T00:00:50;99421.59;;;22.90
76476;BMP280;65308;50.078;14.854;2023-06-22T00:03:17;99420.91;;;22.83
76476;BMP280;65308;50.078;14.854;2023-06-22T00:05:49;99423.31;;;22.74
76476;BMP280;65308;50.078;14.854;2023-06-22T00:08:16;99427.16;;;22.65
76476;BMP280;65308;50.078;14.854;2023-06-22T00:10:43;99428.34;;;22.56
76476;BMP280;65308;50.078;14.854;2023-06-22T00:13:11;99426.41;;;22.51
76476;BMP280;65308;50.078;14.854;2023-06-22T00:15:39;99439.63;;;22.47
76476;BMP280;65308;50.078;14.854;2023-06-22T00:18:07;99426.78;;;22.42
76476;BMP280;65308;50.078;14.854;2023-06-22T00:20:34;99446.03;;;22.31
76476;BMP280;65308;50.078;14.854;2023-06-22T00:23:04;99438.38;;;22.29
76476;BMP280;65308;50.078;14.854;2023-06-22T00:25:33;99446.88;;;22.26
76476;BMP280;65308;50.078;14.854;2023-06-22T00:28:00;99452.38;;;22.20
76476;BMP280;65308;50.078;14.854;2023-06-22T00:30:26;99449.75;;;22.15
76476;BMP280;65308;50.078;14.854;2023-06-22T00:32:53;99451.91;;;22.03
76476;BMP280;65308;50.078;14.854;2023-06-22T00:35:19;99456.41;;;22.00
76476;BMP280;65308;50.078;14.854;2023-06-22T00:37:46;99469.78;;;21.98
76476;BMP280;65308;50.078;14.854;2023-06-22T00:40:14;99471.78;;;21.98
76476;BMP280;65308;50.078;14.854;2023-06-22T00:42:42;99475.72;;;21.97
76476;BMP280;65308;50.078;14.854;2023-06-22T00:45:09;99476.03;;;21.93
76476;BMP280;65308;50.078;14.854;2023-06-22T00:47:37;99475.81;;;21.91
76476;BMP280;65308;50.078;14.854;2023-06-22T00:50:06;99472.84;;;21.89
76476;BMP280;65308;50.078;14.854;2023-06-22T00:52:33;99460.06;;;21.84
76476;BMP280;65308;50.078;14.854;2023-06-22T00:55:02;99457.09;;;21.82
76476;BMP280;65308;50.078;14.854;2023-06-22T00:57:30;99447.75;;;21.78
76476;BMP280;65308;50.078;14.854;2023-06-22T00:59:57;99452.75;;;21.73
76476;BMP280;65308;50.078;14.854;2023-06-22T01:02:23;99445.34;;;21.74
76476;BMP280;65308;50.078;14.854;2023-06-22T01:04:50;99442.63;;;21.74
76476;BMP280;65308;50.078;14.854;2023-06-22T01:07:21;99449.28;;;21.73
76476;BMP280;65308;50.078;14.854;2023-06-22T01:09:57;99441.63;;;21.71
76476;BMP280;65308;50.078;14.854;2023-06-22T01:12:26;99431.75;;;21.68
76476;BMP280;65308;50.078;14.854;2023-06-22T01:14:59;99430.28;;;21.67
76476;BMP280;65308;50.078;14.854;2023-06-22T01:17:28;99430.28;;;21.67
76476;BMP280;65308;50.078;14.854;2023-06-22T01:19:55;99430.88;;;21.60
76476;BMP280;65308;50.078;14.854;2023-06-22T01:22:24;99432.84;;;21.60
76476;BMP280;65308;50.078;14.854;2023-06-22T01:24:57;99430.13;;;21.60
76476;BMP280;65308;50.078;14.854;2023-06-22T01:27:39;99421.19;;;21.59
76476;BMP280;65308;50.078;14.854;2023-06-22T01:30:10;99417.53;;;21.57
76476;BMP280;65308;50.078;14.854;2023-06-22T01:32:38;99408.63;;;21.56
76476;BMP280;65308;50.078;14.854;2023-06-22T01:35:07;99415.38;;;21.49
76476;BMP280;65308;50.078;14.854;2023-06-22T01:37:36;99413.69;;;21.46
76476;BMP280;65308;50.078;14.854;2023-06-22T01:40:05;99414.72;;;21.43
76476;BMP280;65308;50.078;14.854;2023-06-22T01:42:32;99417.22;;;21.41
76476;BMP280;65308;50.078;14.854;2023-06-22T01:45:01;99413.56;;;21.39
76476;BMP280;65308;50.078;14.854;2023-06-22T01:47:31;99414.03;;;21.37
76476;BMP280;65308;50.078;14.854;2023-06-22T01:49:58;99411.81;;;21.36
76476;BMP280;65308;50.078;14.854;2023-06-22T01:52:25;99409.63;;;21.34
76476;BMP280;65308;50.078;14.854;2023-06-22T01:54:52;99412.84;;;21.33
76476;BMP280;65308;50.078;14.854;2023-06-22T01:57:18;99411.91;;;21.30
76476;BMP280;65308;50.078;14.854;2023-06-22T01:59:49;99420.84;;;21.25
76476;BMP280;65308;50.078;14.854;2023-06-22T02:02:20;99417.66;;;21.21
76476;BMP280;65308;50.078;14.854;2023-06-22T02:04:57;99416.25;;;21.14
76476;BMP280;65308;50.078;14.854;2023-06-22T02:07:28;99414.31;;;21.09
76476;BMP280;65308;50.078;14.854;2023-06-22T02:09:57;99419.38;;;21.00
76476;BMP280;65308;50.078;14.854;2023-06-22T02:12:26;99419.91;;;20.92
76476;BMP280;65308;50.078;14.854;2023-06-22T02:14:54;99424.88;;;20.88
76476;BMP280;65308;50.078;14.854;2023-06-22T02:17:21;99428.41;;;20.83
76476;BMP280;65308;50.078;14.854;2023-06-22T02:19:48;99433.16;;;20.77
76476;BMP280;65308;50.078;14.854;2023-06-22T02:22:16;99437.16;;;20.71
76476;BMP280;65308;50.078;14.854;2023-06-22T02:24:43;99446.09;;;20.65
76476;BMP280;65308;50.078;14.854;2023-06-22T02:27:10;99450.78;;;20.65
76476;BMP280;65308;50.078;14.854;2023-06-22T02:29:36;99455.78;;;20.61
76476;BMP280;65308;50.078;14.854;2023-06-22T02:32:04;99457.03;;;20.60
76476;BMP280;65308;50.078;14.854;2023-06-22T02:34:31;99449.81;;;20.62
76476;BMP280;65308;50.078;14.854;2023-06-22T02:36:59;99446.16;;;20.60
76476;BMP280;65308;50.078;14.854;2023-06-22T02:39:27;99450.84;;;20.59
76476;BMP280;65308;50.078;14.854;2023-06-22T02:41:54;99447.41;;;20.53
76476;BMP280;65308;50.078;14.854;2023-06-22T02:44:21;99449.75;;;20.38
76476;BMP280;65308;50.078;14.854;2023-06-22T02:46:48;99443.59;;;20.32
76476;BMP280;65308;50.078;14.854;2023-06-22T02:49:14;99441.63;;;20.32
76476;BMP280;65308;50.078;14.854;2023-06-22T02:51:44;99436.19;;;20.32
76476;BMP280;65308;50.078;14.854;2023-06-22T02:54:12;99434.44;;;20.35
76476;BMP280;65308;50.078;14.854;2023-06-22T02:56:40;99445.03;;;20.38
76476;BMP280;65308;50.078;14.854;2023-06-22T02:59:09;99442.53;;;20.40
76476;BMP280;65308;50.078;14.854;2023-06-22T03:01:36;99436.63;;;20.42
76476;BMP280;65308;50.078;14.854;2023-06-22T03:04:05;99438.31;;;20.45
76476;BMP280;65308;50.078;14.854;2023-06-22T03:06:32;99439.53;;;20.50
76476;BMP280;65308;50.078;14.854;2023-06-22T03:09:00;99439.50;;;20.55
76476;BMP280;65308;50.078;14.854;2023-06-22T03:11:27;99438.47;;;20.64
76476;BMP280;65308;50.078;14.854;2023-06-22T03:13:56;99440.63;;;20.71
76476;BMP280;65308;50.078;14.854;2023-06-22T03:16:22;99434.06;;;20.85
76476;BMP280;65308;50.078;14.854;2023-06-22T03:18:49;99438.88;;;21.04
76476;BMP280;65308;50.078;14.854;2023-06-22T03:21:16;99444.66;;;21.19
76476;BMP280;65308;50.078;14.854;2023-06-22T03:23:42;99439.00;;;21.41
76476;BMP280;65308;50.078;14.854;2023-06-22T03:26:09;99443.91;;;21.67
76476;BMP280;65308;50.078;14.854;2023-06-22T03:28:37;99447.38;;;21.68
76476;BMP280;65308;50.078;14.854;2023-06-22T03:31:05;99443.41;;;21.88
76476;BMP280;65308;50.078;14.854;2023-06-22T03:33:32;99450.25;;;22.13
76476;BMP280;65308;50.078;14.854;2023-06-22T03:35:59;99441.63;;;22.47
76476;BMP280;65308;50.078;14.854;2023-06-22T03:38:26;99446.81;;;22.77
76476;BMP280;65308;50.078;14.854;2023-06-22T03:40:52;99453.19;;;23.11
76476;BMP280;65308;50.078;14.854;2023-06-22T03:43:19;99454.78;;;23.47
76476;BMP280;65308;50.078;14.854;2023-06-22T03:45:46;99465.44;;;23.84
76476;BMP280;65308;50.078;14.854;2023-06-22T03:48:14;99454.16;;;24.22
76476;BMP280;65308;50.078;14.854;2023-06-22T03:50:41;99449.22;;;24.41
76476;BMP280;65308;50.078;14.854;2023-06-22T03:53:09;99465.19;;;24.71
76476;BMP280;65308;50.078;14.854;2023-06-22T03:55:47;99465.88;;;25.21
76476;BMP280;65308;50.078;14.854;2023-06-22T03:58:14;99469.19;;;25.71
76476;BMP280;65308;50.078;14.854;2023-06-22T04:00:41;99462.91;;;26.22
76476;BMP280;65308;50.078;14.854;2023-06-22T04:03:08;99463.44;;;26.74
76476;BMP280;65308;50.078;14.854;2023-06-22T04:05:36;99470.13;;;27.19
76476;BMP280;65308;50.078;14.854;2023-06-22T04:08:03;99457.78;;;27.68
76476;BMP280;65308;50.078;14.854;2023-06-22T04:10:29;99458.16;;;28.21
76476;BMP280;65308;50.078;14.854;2023-06-22T04:12:56;99443.56;;;28.71
76476;BMP280;65308;50.078;14.854;2023-06-22T04:15:28;99449.00;;;29.23
76476;BMP280;65308;50.078;14.854;2023-06-22T04:17:55;99457.59;;;29.81
76476;BMP280;65308;50.078;14.854;2023-06-22T04:20:22;99455.66;;;30.20
76476;BMP280;65308;50.078;14.854;2023-06-22T04:22:52;99466.06;;;30.68
76476;BMP280;65308;50.078;14.854;2023-06-22T04:25:19;99460.91;;;31.12
76476;BMP280;65308;50.078;14.854;2023-06-22T04:27:46;99458.72;;;31.61
76476;BMP280;65308;50.078;14.854;2023-06-22T04:30:32;99467.13;;;32.25
76476;BMP280;65308;50.078;14.854;2023-06-22T04:33:12;99454.31;;;32.86
76476;BMP280;65308;50.078;14.854;2023-06-22T04:35:44;99453.69;;;33.44
76476;BMP280;65308;50.078;14.854;2023-06-22T04:38:13;99455.44;;;33.98
76476;BMP280;65308;50.078;14.854;2023-06-22T04:40:40;99445.47;;;34.44
76476;BMP280;65308;50.078;14.854;2023-06-22T04:43:07;99443.25;;;34.93
76476;BMP280;65308;50.078;14.854;2023-06-22T04:45:35;99442.78;;;35.38
76476;BMP280;65308;50.078;14.854;2023-06-22T04:48:03;99439.63;;;35.73
76476;BMP280;65308;50.078;14.854;2023-06-22T04:50:30;99442.03;;;36.08
76476;BMP280;65308;50.078;14.854;2023-06-22T04:52:58;99447.63;;;36.37
76476;BMP280;65308;50.078;14.854;2023-06-22T04:55:27;99448.63;;;36.59
76476;BMP280;65308;50.078;14.854;2023-06-22T04:57:58;99452.69;;;36.72
76476;BMP280;65308;50.078;14.854;2023-06-22T05:00:31;99449.63;;;36.98
76476;BMP280;65308;50.078;14.854;2023-06-22T05:02:58;99451.38;;;37.38
76476;BMP280;65308;50.078;14.854;2023-06-22T05:05:24;99457.94;;;37.63
76476;BMP280;65308;50.078;14.854;2023-06-22T05:07:51;99457.41;;;37.84
76476;BMP280;65308;50.078;14.854;2023-06-22T05:10:20;99466.09;;;38.28
76476;BMP280;65308;50.078;14.854;2023-06-22T05:12:48;99464.56;;;38.62
76476;BMP280;65308;50.078;14.854;2023-06-22T05:15:15;99478.81;;;39.08
76476;BMP280;65308;50.078;14.854;2023-06-22T05:17:41;99471.00;;;39.68
76476;BMP280;65308;50.078;14.854;2023-06-22T05:20:09;99472.56;;;40.18
76476;BMP280;65308;50.078;14.854;2023-06-22T05:22:35;99483.94;;;40.74
76476;BMP280;65308;50.078;14.854;2023-06-22T05:25:02;99476.53;;;41.13
76476;BMP280;65308;50.078;14.854;2023-06-22T05:27:29;99480.63;;;41.65
76476;BMP280;65308;50.078;14.854;2023-06-22T05:29:57;99482.91;;;42.05
76476;BMP280;65308;50.078;14.854;2023-06-22T05:32:24;99488.09;;;42.53
76476;BMP280;65308;50.078;14.854;2023-06-22T05:34:50;99484.69;;;42.96
76476;BMP280;65308;50.078;14.854;2023-06-22T05:37:17;99495.44;;;43.50
76476;BMP280;65308;50.078;14.854;2023-06-22T05:39:44;99492.56;;;43.98
76476;BMP280;65308;50.078;14.854;2023-06-22T05:42:10;99500.44;;;44.06
76476;BMP280;65308;50.078;14.854;2023-06-22T05:44:37;99496.09;;;43.99
76476;BMP280;65308;50.078;14.854;2023-06-22T05:47:07;99501.13;;;43.54
76476;BMP280;65308;50.078;14.854;2023-06-22T05:49:34;99503.69;;;43.88
76476;BMP280;65308;50.078;14.854;2023-06-22T05:52:00;99508.97;;;44.16
76476;BMP280;65308;50.078;14.854;2023-06-22T05:54:27;99502.44;;;44.59
76476;BMP280;65308;50.078;14.854;2023-06-22T05:56:54;99508.28;;;44.82
76476;BMP280;65308;50.078;14.854;2023-06-22T05:59:21;99513.97;;;44.90
76476;BMP280;65308;50.078;14.854;2023-06-22T06:01:48;99525.75;;;45.47
76476;BMP280;65308;50.078;14.854;2023-06-22T06:04:18;99531.06;;;46.17
76476;BMP280;65308;50.078;14.854;2023-06-22T06:06:50;99531.88;;;46.80
76476;BMP280;65308;50.078;14.854;2023-06-22T06:09:17;99538.19;;;47.48
76476;BMP280;65308;50.078;14.854;2023-06-22T06:11:44;99524.41;;;48.17
76476;BMP280;65308;50.078;14.854;2023-06-22T06:14:10;99519.81;;;48.67
76476;BMP280;65308;50.078;14.854;2023-06-22T06:16:37;99520.16;;;48.20
76476;BMP280;65308;50.078;14.854;2023-06-22T06:19:10;99508.66;;;48.40
76476;BMP280;65308;50.078;14.854;2023-06-22T06:21:38;99515.38;;;48.82
76476;BMP280;65308;50.078;14.854;2023-06-22T06:24:06;99508.03;;;49.09
76476;BMP280;65308;50.078;14.854;2023-06-22T06:26:32;99522.91;;;49.16
76476;BMP280;65308;50.078;14.854;2023-06-22T06:29:01;99528.69;;;49.69
76476;BMP280;65308;50.078;14.854;2023-06-22T06:31:29;99534.69;;;50.45
76476;BMP280;65308;50.078;14.854;2023-06-22T06:33:56;99525.31;;;50.50
76476;BMP280;65308;50.078;14.854;2023-06-22T06:36:23;99528.19;;;50.01
76476;BMP280;65308;50.078;14.854;2023-06-22T06:38:51;99528.59;;;49.73
76476;BMP280;65308;50.078;14.854;2023-06-22T06:41:18;99521.59;;;50.17
76476;BMP280;65308;50.078;14.854;2023-06-22T06:43:46;99522.88;;;50.67
76476;BMP280;65308;50.078;14.854;2023-06-22T06:46:13;99529.41;;;48.06
76476;BMP280;65308;50.078;14.854;2023-06-22T06:48:39;99524.00;;;48.76
76476;BMP280;65308;50.078;14.854;2023-06-22T06:51:06;99513.13;;;49.62
76476;BMP280;65308;50.078;14.854;2023-06-22T06:53:35;99517.00;;;50.38
76476;BMP280;65308;50.078;14.854;2023-06-22T06:56:12;99508.31;;;50.85
76476;BMP280;65308;50.078;14.854;2023-06-22T06:58:40;99508.19;;;50.53
76476;BMP280;65308;50.078;14.854;2023-06-22T07:01:07;99510.16;;;50.62
76476;BMP280;65308;50.078;14.854;2023-06-22T07:03:34;99510.31;;;49.58
76476;BMP280;65308;50.078;14.854;2023-06-22T07:06:05;99506.44;;;49.82
76476;BMP280;65308;50.078;14.854;2023-06-22T07:08:32;99511.06;;;50.07
76476;BMP280;65308;50.078;14.854;2023-06-22T07:11:08;99510.81;;;49.17
76476;BMP280;65308;50.078;14.854;2023-06-22T07:13:34;99503.75;;;49.10
76476;BMP280;65308;50.078;14.854;2023-06-22T07:16:01;99502.50;;;49.58
76476;BMP280;65308;50.078;14.854;2023-06-22T07:18:28;99501.53;;;49.21
76476;BMP280;65308;50.078;14.854;2023-06-22T07:20:54;99508.34;;;47.69
76476;BMP280;65308;50.078;14.854;2023-06-22T07:23:21;99498.59;;;47.03
76476;BMP280;65308;50.078;14.854;2023-06-22T07:25:47;99501.41;;;47.17
76476;BMP280;65308;50.078;14.854;2023-06-22T07:28:15;99505.69;;;46.72
76476;BMP280;65308;50.078;14.854;2023-06-22T07:30:42;99487.91;;;46.31
76476;BMP280;65308;50.078;14.854;2023-06-22T07:33:10;99492.19;;;46.97
76476;BMP280;65308;50.078;14.854;2023-06-22T07:35:37;99475.91;;;47.07
76476;BMP280;65308;50.078;14.854;2023-06-22T07:38:03;99479.41;;;44.19
76476;BMP280;65308;50.078;14.854;2023-06-22T07:40:30;99481.06;;;44.40
76476;BMP280;65308;50.078;14.854;2023-06-22T07:43:00;99482.88;;;44.82
76476;BMP280;65308;50.078;14.854;2023-06-22T07:45:30;99487.06;;;44.75
76476;BMP280;65308;50.078;14.854;2023-06-22T07:47:58;99471.84;;;45.20
76476;BMP280;65308;50.078;14.854;2023-06-22T07:50:25;99465.63;;;43.85
76476;BMP280;65308;50.078;14.854;2023-06-22T07:52:51;99476.88;;;44.45
76476;BMP280;65308;50.078;14.854;2023-06-22T07:55:18;99474.28;;;45.70
76476;BMP280;65308;50.078;14.854;2023-06-22T07:57:48;99478.06;;;46.74
76476;BMP280;65308;50.078;14.854;2023-06-22T08:00:17;99481.56;;;46.55
76476;BMP280;65308;50.078;14.854;2023-06-22T08:02:46;99477.88;;;45.83
76476;BMP280;65308;50.078;14.854;2023-06-22T08:05:13;99456.75;;;43.59
76476;BMP280;65308;50.078;14.854;2023-06-22T08:07:40;99466.16;;;41.77
76476;BMP280;65308;50.078;14.854;2023-06-22T08:10:10;99454.53;;;43.49
76476;BMP280;65308;50.078;14.854;2023-06-22T08:12:37;99452.50;;;44.10
76476;BMP280;65308;50.078;14.854;2023-06-22T08:15:05;99448.47;;;44.25
76476;BMP280;65308;50.078;14.854;2023-06-22T08:17:32;99445.03;;;45.17
76476;BMP280;65308;50.078;14.854;2023-06-22T08:20:01;99446.56;;;45.36
76476;BMP280;65308;50.078;14.854;2023-06-22T08:22:34;99440.38;;;45.79
76476;BMP280;65308;50.078;14.854;2023-06-22T08:25:02;99433.53;;;44.91
76476;BMP280;65308;50.078;14.854;2023-06-22T08:27:29;99441.50;;;44.34
76476;BMP280;65308;50.078;14.854;2023-06-22T08:29:57;99442.53;;;43.00
76476;BMP280;65308;50.078;14.854;2023-06-22T08:32:24;99432.94;;;43.18
76476;BMP280;65308;50.078;14.854;2023-06-22T08:34:51;99429.66;;;44.50
76476;BMP280;65308;50.078;14.854;2023-06-22T08:37:19;99423.31;;;43.89
76476;BMP280;65308;50.078;14.854;2023-06-22T08:39:50;99420.56;;;42.93
76476;BMP280;65308;50.078;14.854;2023-06-22T08:42:17;99423.47;;;42.57
76476;BMP280;65308;50.078;14.854;2023-06-22T08:44:43;99422.19;;;43.56
76476;BMP280;65308;50.078;14.854;2023-06-22T08:49:41;99413.81;;;44.97
76476;BMP280;65308;50.078;14.854;2023-06-22T08:52:08;99417.03;;;45.76
76476;BMP280;65308;50.078;14.854;2023-06-22T08:54:36;99413.47;;;45.63
76476;BMP280;65308;50.078;14.854;2023-06-22T08:57:03;99416.63;;;44.18
76476;BMP280;65308;50.078;14.854;2023-06-22T08:59:30;99412.34;;;44.92
76476;BMP280;65308;50.078;14.854;2023-06-22T09:01:56;99399.25;;;44.42
76476;BMP280;65308;50.078;14.854;2023-06-22T09:04:24;99413.81;;;44.18
76476;BMP280;65308;50.078;14.854;2023-06-22T09:06:50;99399.56;;;44.83
76476;BMP280;65308;50.078;14.854;2023-06-22T09:09:18;99393.66;;;43.28
76476;BMP280;65308;50.078;14.854;2023-06-22T09:14:18;99390.72;;;44.34
76476;BMP280;65308;50.078;14.854;2023-06-22T09:16:45;99388.66;;;44.39
76476;BMP280;65308;50.078;14.854;2023-06-22T09:19:12;99388.47;;;45.11
76476;BMP280;65308;50.078;14.854;2023-06-22T09:21:38;99390.47;;;44.12
76476;BMP280;65308;50.078;14.854;2023-06-22T09:24:06;99389.47;;;43.83
76476;BMP280;65308;50.078;14.854;2023-06-22T09:26:33;99382.66;;;44.04
76476;BMP280;65308;50.078;14.854;2023-06-22T09:29:00;99373.13;;;43.73
76476;BMP280;65308;50.078;14.854;2023-06-22T09:31:28;99375.84;;;43.13
76476;BMP280;65308;50.078;14.854;2023-06-22T09:33:54;99380.06;;;41.60
76476;BMP280;65308;50.078;14.854;2023-06-22T09:36:21;99372.66;;;40.57
76476;BMP280;65308;50.078;14.854;2023-06-22T09:38:48;99381.50;;;40.73
76476;BMP280;65308;50.078;14.854;2023-06-22T09:41:21;99368.69;;;40.40
76476;BMP280;65308;50.078;14.854;2023-06-22T09:43:47;99367.38;;;40.43
76476;BMP280;65308;50.078;14.854;2023-06-22T09:46:14;99362.22;;;40.34
76476;BMP280;65308;50.078;14.854;2023-06-22T09:48:42;99360.88;;;40.62
76476;BMP280;65308;50.078;14.854;2023-06-22T09:51:09;99356.31;;;40.23
76476;BMP280;65308;50.078;14.854;2023-06-22T09:53:36;99356.94;;;39.96
76476;BMP280;65308;50.078;14.854;2023-06-22T09:56:03;99368.25;;;40.24
76476;BMP280;65308;50.078;14.854;2023-06-22T09:58:31;99348.63;;;40.24
76476;BMP280;65308;50.078;14.854;2023-06-22T10:00:58;99349.00;;;39.41
76476;BMP280;65308;50.078;14.854;2023-06-22T10:03:25;99354.41;;;39.13
76476;BMP280;65308;50.078;14.854;2023-06-22T10:05:53;99352.84;;;38.66
76476;BMP280;65308;50.078;14.854;2023-06-22T10:08:21;99349.38;;;38.87
76476;BMP280;65308;50.078;14.854;2023-06-22T10:10:47;99353.09;;;38.94
76476;BMP280;65308;50.078;14.854;2023-06-22T10:13:14;99347.06;;;39.02
76476;BMP280;65308;50.078;14.854;2023-06-22T10:15:41;99347.72;;;38.80
76476;BMP280;65308;50.078;14.854;2023-06-22T10:18:12;99340.94;;;37.71
76476;BMP280;65308;50.078;14.854;2023-06-22T10:20:39;99340.31;;;37.54
76476;BMP280;65308;50.078;14.854;2023-06-22T10:23:07;99336.16;;;37.20
76476;BMP280;65308;50.078;14.854;2023-06-22T10:25:34;99335.22;;;36.98
76476;BMP280;65308;50.078;14.854;2023-06-22T10:28:05;99332.31;;;36.62
76476;BMP280;65308;50.078;14.854;2023-06-22T10:30:32;99332.28;;;35.83
76476;BMP280;65308;50.078;14.854;2023-06-22T10:32:59;99335.16;;;35.42
76476;BMP280;65308;50.078;14.854;2023-06-22T10:35:25;99333.59;;;35.53
76476;BMP280;65308;50.078;14.854;2023-06-22T10:37:52;99322.13;;;34.90
76476;BMP280;65308;50.078;14.854;2023-06-22T10:40:21;99331.25;;;34.38
76476;BMP280;65308;50.078;14.854;2023-06-22T10:42:47;99326.28;;;34.11
76476;BMP280;65308;50.078;14.854;2023-06-22T10:45:15;99329.84;;;34.25
76476;BMP280;65308;50.078;14.854;2023-06-22T10:47:42;99330.22;;;34.45
76476;BMP280;65308;50.078;14.854;2023-06-22T10:50:11;99330.66;;;34.67
76476;BMP280;65308;50.078;14.854;2023-06-22T10:52:38;99324.19;;;34.62
76476;BMP280;65308;50.078;14.854;2023-06-22T10:55:06;99324.91;;;34.90
76476;BMP280;65308;50.078;14.854;2023-06-22T10:57:34;99328.63;;;34.94
76476;BMP280;65308;50.078;14.854;2023-06-22T11:00:02;99322.59;;;33.81
76476;BMP280;65308;50.078;14.854;2023-06-22T11:02:30;99306.06;;;33.22
76476;BMP280;65308;50.078;14.854;2023-06-22T11:04:57;99316.94;;;33.06
76476;BMP280;65308;50.078;14.854;2023-06-22T11:07:25;99303.56;;;32.80
76476;BMP280;65308;50.078;14.854;2023-06-22T11:09:52;99302.50;;;32.85
76476;BMP280;65308;50.078;14.854;2023-06-22T11:12:19;99300.72;;;33.26
76476;BMP280;65308;50.078;14.854;2023-06-22T11:14:47;99285.50;;;33.51
76476;BMP280;65308;50.078;14.854;2023-06-22T11:17:15;99291.19;;;33.41
76476;BMP280;65308;50.078;14.854;2023-06-22T11:19:42;99287.66;;;33.52
76476;BMP280;65308;50.078;14.854;2023-06-22T11:22:08;99297.91;;;32.89
76476;BMP280;65308;50.078;14.854;2023-06-22T11:24:35;99283.19;;;32.63
76476;BMP280;65308;50.078;14.854;2023-06-22T11:27:02;99287.00;;;32.35
76476;BMP280;65308;50.078;14.854;2023-06-22T11:29:29;99284.00;;;32.42
76476;BMP280;65308;50.078;14.854;2023-06-22T11:31:58;99278.19;;;32.38
76476;BMP280;65308;50.078;14.854;2023-06-22T11:34:25;99277.97;;;32.46
76476;BMP280;65308;50.078;14.854;2023-06-22T11:36:53;99279.91;;;32.90
76476;BMP280;65308;50.078;14.854;2023-06-22T11:39:20;99266.03;;;33.14
76476;BMP280;65308;50.078;14.854;2023-06-22T11:41:46;99266.03;;;33.14
76476;BMP280;65308;50.078;14.854;2023-06-22T11:44:13;99263.25;;;33.25
76476;BMP280;65308;50.078;14.854;2023-06-22T11:46:40;99257.59;;;33.12
76476;BMP280;65308;50.078;14.854;2023-06-22T11:49:08;99260.50;;;33.14
76476;BMP280;65308;50.078;14.854;2023-06-22T11:51:35;99251.69;;;33.54
76476;BMP280;65308;50.078;14.854;2023-06-22T11:54:03;99248.75;;;33.64
76476;BMP280;65308;50.078;14.854;2023-06-22T11:56:32;99245.16;;;33.87
76476;BMP280;65308;50.078;14.854;2023-06-22T11:58:59;99240.41;;;33.76
76476;BMP280;65308;50.078;14.854;2023-06-22T12:01:26;99228.56;;;33.50
76476;BMP280;65308;50.078;14.854;2023-06-22T12:03:52;99235.78;;;33.06
76476;BMP280;65308;50.078;14.854;2023-06-22T12:06:20;99221.94;;;33.06
76476;BMP280;65308;50.078;14.854;2023-06-22T12:08:48;99222.28;;;33.12
76476;BMP280;65308;50.078;14.854;2023-06-22T12:11:15;99232.00;;;33.62
76476;BMP280;65308;50.078;14.854;2023-06-22T12:13:42;99234.22;;;33.77
76476;BMP280;65308;50.078;14.854;2023-06-22T12:16:09;99225.41;;;33.55
76476;BMP280;65308;50.078;14.854;2023-06-22T12:18:35;99224.28;;;33.23
76476;BMP280;65308;50.078;14.854;2023-06-22T12:21:02;99233.47;;;33.88
76476;BMP280;65308;50.078;14.854;2023-06-22T12:23:30;99225.00;;;33.35
76476;BMP280;65308;50.078;14.854;2023-06-22T12:25:57;99228.47;;;32.87
76476;BMP280;65308;50.078;14.854;2023-06-22T12:28:24;99229.88;;;32.41
76476;BMP280;65308;50.078;14.854;2023-06-22T12:30:51;99225.13;;;32.65
76476;BMP280;65308;50.078;14.854;2023-06-22T12:33:18;99227.78;;;32.63
76476;BMP280;65308;50.078;14.854;2023-06-22T12:35:45;99222.66;;;32.36
76476;BMP280;65308;50.078;14.854;2023-06-22T12:38:14;99217.25;;;32.38
76476;BMP280;65308;50.078;14.854;2023-06-22T12:40:42;99221.84;;;32.46
76476;BMP280;65308;50.078;14.854;2023-06-22T12:43:09;99210.63;;;32.67
76476;BMP280;65308;50.078;14.854;2023-06-22T12:45:35;99222.69;;;32.95
76476;BMP280;65308;50.078;14.854;2023-06-22T12:48:02;99213.41;;;32.79
76476;BMP280;65308;50.078;14.854;2023-06-22T12:50:29;99210.03;;;32.80
76476;BMP280;65308;50.078;14.854;2023-06-22T12:52:55;99197.22;;;33.10
76476;BMP280;65308;50.078;14.854;2023-06-22T12:55:22;99201.66;;;33.15
76476;BMP280;65308;50.078;14.854;2023-06-22T12:57:50;99206.69;;;33.30
76476;BMP280;65308;50.078;14.854;2023-06-22T13:00:17;99196.09;;;33.52
76476;BMP280;65308;50.078;14.854;2023-06-22T13:02:44;99190.44;;;33.76
76476;BMP280;65308;50.078;14.854;2023-06-22T13:05:10;99189.16;;;33.65
76476;BMP280;65308;50.078;14.854;2023-06-22T13:07:37;99181.59;;;33.79
76476;BMP280;65308;50.078;14.854;2023-06-22T13:10:04;99187.88;;;33.80
76476;BMP280;65308;50.078;14.854;2023-06-22T13:12:31;99178.88;;;33.93
76476;BMP280;65308;50.078;14.854;2023-06-22T13:14:59;99170.72;;;33.97
76476;BMP280;65308;50.078;14.854;2023-06-22T13:17:28;99174.25;;;34.11
76476;BMP280;65308;50.078;14.854;2023-06-22T13:19:54;99161.41;;;34.18
76476;BMP280;65308;50.078;14.854;2023-06-22T13:22:27;99158.00;;;34.19
76476;BMP280;65308;50.078;14.854;2023-06-22T13:24:54;99156.28;;;34.26
76476;BMP280;65308;50.078;14.854;2023-06-22T13:27:21;99152.47;;;34.33
76476;BMP280;65308;50.078;14.854;2023-06-22T13:29:49;99148.47;;;34.50
76476;BMP280;65308;50.078;14.854;2023-06-22T13:32:17;99170.19;;;34.40
76476;BMP280;65308;50.078;14.854;2023-06-22T13:34:44;99147.19;;;34.53
76476;BMP280;65308;50.078;14.854;2023-06-22T13:37:13;99145.56;;;34.34
76476;BMP280;65308;50.078;14.854;2023-06-22T13:39:39;99140.88;;;33.84
76476;BMP280;65308;50.078;14.854;2023-06-22T13:42:07;99140.63;;;34.05
76476;BMP280;65308;50.078;14.854;2023-06-22T13:44:33;99141.66;;;34.25
76476;BMP280;65308;50.078;14.854;2023-06-22T13:47:03;99129.22;;;34.40
76476;BMP280;65308;50.078;14.854;2023-06-22T13:49:38;99124.78;;;34.21
76476;BMP280;65308;50.078;14.854;2023-06-22T13:52:08;99129.53;;;34.05
76476;BMP280;65308;50.078;14.854;2023-06-22T13:54:38;99125.63;;;34.10
76476;BMP280;65308;50.078;14.854;2023-06-22T13:57:10;99131.47;;;34.03
76476;BMP280;65308;50.078;14.854;2023-06-22T13:59:38;99125.72;;;34.26
76476;BMP280;65308;50.078;14.854;2023-06-22T14:02:06;99134.66;;;34.24
76476;BMP280;65308;50.078;14.854;2023-06-22T14:04:34;99126.00;;;34.46